Terminal Aerodrome Forecast
Issued by NWS

Home | Current Version | Previous Version | Text Only | Print | Product List | Glossary Off
Versions: 1 2 3 4 5 6 7 8 9 10 11 12 13 14 15 16 17 18 19 20 21 22 23 24 25 26

000
FTUS43 KBIS 261500 AAB
TAFDIK
TAF AMD
KDIK 261520Z 2615/2712 06007KT 4SM -SN BR SCT008 OVC060
      TEMPO 2615/2617 OVC008
     FM261800 07006KT P6SM SCT040 BKN060
     FM270200 14010KT P6SM VCSH BKN045 OVC120
     FM270600 16009KT P6SM -RASN BKN035 OVC070=

USA.gov is the U.S. government's official web portal to all federal, state and local government web resources and services.